Time;durP1;ratioP1;P1;durP2;ratioP2;P2;SDS_P1;SDS_P2;PMS_P1;PMS_P2;Temp;Humidity;BMP_temperature;BMP_pressure;BME280_temperature;BME280_humidity;BME280_pressure;Samples;Min_cycle;Max_cycle;Signal;HPM_P1;HPM_P2
2023/04/28 00:00:28;;;;;;;;;;;18.00;67.70;;;;;;4996036;28;884;-72
2023/04/28 00:02:54;;;;;;;;;;;18.00;67.70;;;;;;4993652;28;1034;-72
2023/04/28 00:05:20;;;;;;;;;;;18.00;67.70;;;;;;4995690;28;1252;-72
2023/04/28 00:07:45;;;;;;;;;;;18.00;67.70;;;;;;4994307;28;1981;-72
2023/04/28 00:10:11;;;;;;;;;;;18.00;67.70;;;;;;4990601;28;985;-72
2023/04/28 00:12:36;;;;;;;;;;;18.00;67.70;;;;;;4992709;28;868;-72
2023/04/28 00:15:02;;;;;;;;;;;18.00;67.70;;;;;;4991354;28;1255;-72
2023/04/28 00:17:28;;;;;;;;;;;18.00;67.70;;;;;;4989914;28;883;-72
2023/04/28 00:19:53;;;;;;;;;;;18.00;67.80;;;;;;4991105;28;906;-72
2023/04/28 00:22:19;;;;;;;;;;;18.00;67.80;;;;;;4990325;28;872;-72
2023/04/28 00:24:44;;;;;;;;;;;18.00;67.80;;;;;;4995114;28;1252;-72
2023/04/28 00:27:10;;;;;;;;;;;18.00;67.80;;;;;;4997116;28;908;-72
2023/04/28 00:29:38;;;;;;;;;;;18.00;67.80;;;;;;4994379;28;1966;-72
2023/04/28 00:32:04;;;;;;;;;;;18.00;67.90;;;;;;4993930;28;892;-72
2023/04/28 00:34:32;;;;;;;;;;;18.00;67.80;;;;;;4996808;28;1292;-72
2023/04/28 00:36:57;;;;;;;;;;;18.00;67.90;;;;;;4996247;28;862;-73
2023/04/28 00:39:23;;;;;;;;;;;18.00;67.80;;;;;;4991987;28;1010;-72
2023/04/28 00:41:48;;;;;;;;;;;18.00;67.80;;;;;;4990545;28;1251;-73
2023/04/28 00:44:13;;;;;;;;;;;18.00;67.90;;;;;;4990592;28;1611;-73
2023/04/28 00:46:39;;;;;;;;;;;18.00;67.90;;;;;;4991942;28;1025;-73
2023/04/28 00:49:04;;;;;;;;;;;18.00;67.90;;;;;;4990318;28;1910;-73
2023/04/28 00:51:32;;;;;;;;;;;18.00;67.90;;;;;;4991561;28;879;-73
2023/04/28 00:53:57;;;;;;;;;;;18.00;67.90;;;;;;4987469;28;1234;-71
2023/04/28 00:56:23;;;;;;;;;;;18.00;67.90;;;;;;4990697;28;1037;-72
2023/04/28 00:58:48;;;;;;;;;;;18.00;67.90;;;;;;4988581;28;1622;-71
2023/04/28 01:01:14;;;;;;;;;;;17.90;67.90;;;;;;4989090;28;1308;-74
2023/04/28 01:03:40;;;;;;;;;;;18.00;67.90;;;;;;4988816;28;1292;-76
2023/04/28 01:06:06;;;;;;;;;;;18.00;68.00;;;;;;4999896;28;1022;-73
2023/04/28 01:08:31;;;;;;;;;;;18.00;67.90;;;;;;4994820;28;1902;-74
2023/04/28 01:10:57;;;;;;;;;;;18.00;68.00;;;;;;4992669;28;778;-76
2023/04/28 01:13:22;;;;;;;;;;;18.00;67.90;;;;;;4994358;28;1292;-73
2023/04/28 01:15:48;;;;;;;;;;;18.00;68.00;;;;;;4998998;28;1189;-71
2023/04/28 01:18:14;;;;;;;;;;;18.00;68.00;;;;;;4977904;28;1545;-74
2023/04/28 01:20:39;;;;;;;;;;;17.90;67.90;;;;;;4993589;28;1423;-73
2023/04/28 01:23:05;;;;;;;;;;;18.00;68.00;;;;;;4995003;28;1323;-72
2023/04/28 01:25:30;;;;;;;;;;;18.00;68.00;;;;;;4994059;28;1639;-72
2023/04/28 01:27:56;;;;;;;;;;;18.00;68.00;;;;;;4998035;28;1972;-73
2023/04/28 01:30:21;;;;;;;;;;;17.90;67.90;;;;;;5002159;28;1346;-73
2023/04/28 01:32:47;;;;;;;;;;;17.90;67.90;;;;;;4997025;28;1282;-72
2023/04/28 01:35:12;;;;;;;;;;;17.90;68.00;;;;;;4994199;28;1368;-72
2023/04/28 01:37:37;;;;;;;;;;;17.90;68.00;;;;;;4995568;28;1404;-72
2023/04/28 01:40:03;;;;;;;;;;;18.00;68.00;;;;;;5001970;28;950;-72
2023/04/28 01:42:29;;;;;;;;;;;17.90;68.00;;;;;;4994685;28;1276;-73
2023/04/28 01:44:54;;;;;;;;;;;17.90;68.00;;;;;;4994957;28;1294;-73
2023/04/28 01:47:20;;;;;;;;;;;17.90;68.00;;;;;;4999612;28;991;-73
2023/04/28 01:49:47;;;;;;;;;;;17.90;68.00;;;;;;4997064;28;1898;-73
2023/04/28 01:52:12;;;;;;;;;;;17.90;68.00;;;;;;4993291;28;1332;-72
2023/04/28 01:54:38;;;;;;;;;;;17.90;68.00;;;;;;4994546;28;1329;-73
2023/04/28 01:57:03;;;;;;;;;;;17.90;68.00;;;;;;4997677;28;864;-73
2023/04/28 01:59:29;;;;;;;;;;;17.90;68.10;;;;;;4996728;28;891;-73
2023/04/28 02:01:54;;;;;;;;;;;17.90;68.00;;;;;;5004925;28;848;-72
2023/04/28 02:04:20;;;;;;;;;;;17.90;68.00;;;;;;4997422;28;1217;-73
2023/04/28 02:06:45;;;;;;;;;;;17.90;68.10;;;;;;5002568;28;805;-73
2023/04/28 02:09:11;;;;;;;;;;;17.90;68.10;;;;;;5002846;28;1910;-73
2023/04/28 02:11:36;;;;;;;;;;;17.90;68.00;;;;;;4995756;28;1049;-71
2023/04/28 02:14:02;;;;;;;;;;;17.90;68.10;;;;;;4997026;28;1233;-72
2023/04/28 02:16:27;;;;;;;;;;;17.90;68.10;;;;;;4996497;28;877;-72
2023/04/28 02:18:53;;;;;;;;;;;17.90;68.10;;;;;;4995552;28;1077;-71
2023/04/28 02:21:18;;;;;;;;;;;17.90;68.10;;;;;;4997542;28;826;-73
2023/04/28 02:23:43;;;;;;;;;;;17.90;68.10;;;;;;4994639;28;1257;-72
2023/04/28 02:26:09;;;;;;;;;;;17.90;68.10;;;;;;4997522;28;804;-72
2023/04/28 02:28:35;;;;;;;;;;;17.90;68.20;;;;;;5001155;28;1946;-74
2023/04/28 02:31:04;;;;;;;;;;;17.90;68.20;;;;;;4997775;28;855;-73
2023/04/28 02:33:30;;;;;;;;;;;17.90;68.10;;;;;;4994178;28;1588;-73
2023/04/28 02:36:01;;;;;;;;;;;17.90;68.20;;;;;;4996765;28;865;-73
2023/04/28 02:38:27;;;;;;;;;;;17.90;68.10;;;;;;4995377;28;898;-73
2023/04/28 02:41:03;;;;;;;;;;;17.90;68.10;;;;;;4993229;28;872;-73
2023/04/28 02:43:32;;;;;;;;;;;17.90;68.10;;;;;;4995991;28;1573;-73
2023/04/28 02:45:57;;;;;;;;;;;17.90;68.10;;;;;;4993960;28;840;-73
2023/04/28 02:48:23;;;;;;;;;;;17.90;68.10;;;;;;4994125;28;1960;-73
2023/04/28 02:50:49;;;;;;;;;;;17.90;68.10;;;;;;4997865;28;927;-73
2023/04/28 02:53:14;;;;;;;;;;;17.90;68.20;;;;;;4995676;28;1206;-73
2023/04/28 02:55:40;;;;;;;;;;;17.90;68.20;;;;;;4990772;28;921;-74
2023/04/28 02:58:05;;;;;;;;;;;17.90;68.20;;;;;;4997512;28;803;-74
2023/04/28 03:00:31;;;;;;;;;;;17.90;68.20;;;;;;4994999;28;856;-76
2023/04/28 03:02:56;;;;;;;;;;;17.90;68.20;;;;;;4996634;28;917;-74
2023/04/28 03:05:21;;;;;;;;;;;17.90;68.20;;;;;;4993646;28;1381;-73
2023/04/28 03:07:47;;;;;;;;;;;17.90;68.20;;;;;;4993969;28;1979;-75
2023/04/28 03:10:12;;;;;;;;;;;17.90;68.20;;;;;;4998963;28;884;-73
2023/04/28 03:12:38;;;;;;;;;;;17.90;68.20;;;;;;4992688;28;941;-72
2023/04/28 03:15:04;;;;;;;;;;;17.90;68.20;;;;;;4994446;28;1371;-72
2023/04/28 03:17:30;;;;;;;;;;;17.90;68.20;;;;;;4997809;28;907;-72
2023/04/28 03:19:55;;;;;;;;;;;17.90;68.20;;;;;;4996574;28;895;-71
2023/04/28 03:22:21;;;;;;;;;;;17.90;68.20;;;;;;4999109;28;912;-74
2023/04/28 03:24:46;;;;;;;;;;;17.80;68.20;;;;;;4992611;28;1252;-74
2023/04/28 03:27:12;;;;;;;;;;;17.90;68.30;;;;;;5000597;28;955;-72
2023/04/28 03:29:37;;;;;;;;;;;17.80;68.20;;;;;;4999737;28;1894;-72
2023/04/28 03:32:03;;;;;;;;;;;17.80;68.20;;;;;;4995817;28;828;-72
2023/04/28 03:34:28;;;;;;;;;;;17.90;68.30;;;;;;4993682;28;1312;-72
2023/04/28 03:36:54;;;;;;;;;;;17.80;68.20;;;;;;5001265;28;836;-72
2023/04/28 03:39:19;;;;;;;;;;;17.80;68.20;;;;;;5000446;28;870;-72
2023/04/28 03:41:45;;;;;;;;;;;17.80;68.20;;;;;;5001648;28;825;-73
2023/04/28 03:44:10;;;;;;;;;;;17.80;68.20;;;;;;4993365;28;1348;-75
2023/04/28 03:46:36;;;;;;;;;;;17.80;68.20;;;;;;4991748;28;1076;-74
2023/04/28 03:49:02;;;;;;;;;;;17.90;68.30;;;;;;4993020;28;1951;-73
2023/04/28 03:51:28;;;;;;;;;;;17.80;68.20;;;;;;4993502;28;863;-74
2023/04/28 03:53:53;;;;;;;;;;;17.80;68.20;;;;;;4997473;28;1190;-72
2023/04/28 03:56:19;;;;;;;;;;;17.80;68.20;;;;;;4988751;28;879;-74
2023/04/28 03:58:45;;;;;;;;;;;17.80;68.20;;;;;;4996169;28;917;-75
2023/04/28 04:01:10;;;;;;;;;;;17.80;68.20;;;;;;4991621;28;1058;-75
2023/04/28 04:03:36;;;;;;;;;;;17.80;68.20;;;;;;4997414;28;1326;-74
2023/04/28 04:06:01;;;;;;;;;;;17.80;68.30;;;;;;5000545;28;940;-75
2023/04/28 04:08:27;;;;;;;;;;;17.80;68.20;;;;;;5000029;28;1902;-74
2023/04/28 04:10:53;;;;;;;;;;;17.90;68.20;;;;;;5002647;28;828;-74
2023/04/28 04:13:19;;;;;;;;;;;17.90;68.20;;;;;;4995352;28;1245;-74
2023/04/28 04:15:45;;;;;;;;;;;17.90;68.10;;;;;;4990708;28;886;-74
2023/04/28 04:18:11;;;;;;;;;;;17.90;68.00;;;;;;4991902;28;876;-73
2023/04/28 04:20:36;;;;;;;;;;;17.90;67.80;;;;;;4994236;28;835;-74
2023/04/28 04:23:02;;;;;;;;;;;18.00;67.70;;;;;;4992027;28;822;-74
2023/04/28 04:25:28;;;;;;;;;;;18.00;67.60;;;;;;4996061;28;1139;-73
2023/04/28 04:27:53;;;;;;;;;;;18.10;67.40;;;;;;4994461;28;1955;-72
2023/04/28 04:30:19;;;;;;;;;;;18.10;67.40;;;;;;5001969;28;1805;-73
2023/04/28 04:32:44;;;;;;;;;;;18.10;67.20;;;;;;5000165;28;1456;-72
2023/04/28 04:35:10;;;;;;;;;;;18.10;67.10;;;;;;4999188;28;1588;-73
2023/04/28 04:37:35;;;;;;;;;;;18.20;67.10;;;;;;4999918;28;1504;-73
2023/04/28 04:40:01;;;;;;;;;;;18.20;66.90;;;;;;5000437;28;1378;-73
2023/04/28 04:42:27;;;;;;;;;;;18.20;66.80;;;;;;4999700;28;1511;-72
2023/04/28 04:44:52;;;;;;;;;;;18.20;66.80;;;;;;4999060;28;1595;-72
2023/04/28 04:47:18;;;;;;;;;;;18.30;66.70;;;;;;4998487;28;1450;-73
2023/04/28 04:49:44;;;;;;;;;;;18.30;66.60;;;;;;4994916;28;1914;-73
2023/04/28 04:52:09;;;;;;;;;;;18.30;66.50;;;;;;4992620;28;876;-73
2023/04/28 04:54:34;;;;;;;;;;;18.30;66.40;;;;;;4995544;28;1312;-72
2023/04/28 04:57:01;;;;;;;;;;;18.30;66.40;;;;;;4990312;28;891;-72
2023/04/28 04:59:27;;;;;;;;;;;18.30;66.30;;;;;;4987280;28;857;-72
2023/04/28 05:01:52;;;;;;;;;;;18.40;66.30;;;;;;4994325;28;806;-72
2023/04/28 05:04:18;;;;;;;;;;;18.40;66.30;;;;;;4994495;28;1339;-72
2023/04/28 05:06:43;;;;;;;;;;;18.40;66.20;;;;;;4992128;28;887;-72
2023/04/28 05:09:08;;;;;;;;;;;18.40;66.20;;;;;;4993007;28;1902;-72
2023/04/28 05:11:34;;;;;;;;;;;18.40;66.20;;;;;;4994120;28;857;-73
2023/04/28 05:13:59;;;;;;;;;;;18.40;66.10;;;;;;4989339;28;1324;-73
2023/04/28 05:16:25;;;;;;;;;;;18.40;66.10;;;;;;4985360;28;1171;-73
2023/04/28 05:18:51;;;;;;;;;;;18.40;66.10;;;;;;4991651;28;836;-72
2023/04/28 05:21:17;;;;;;;;;;;18.40;66.10;;;;;;4997296;28;2012;-72
2023/04/28 05:23:42;;;;;;;;;;;18.40;66.00;;;;;;4990100;28;1375;-73
2023/04/28 05:26:08;;;;;;;;;;;18.40;66.00;;;;;;4996411;28;847;-73
2023/04/28 05:28:33;;;;;;;;;;;18.40;66.00;;;;;;4993461;28;1894;-73
2023/04/28 05:30:59;;;;;;;;;;;18.40;66.00;;;;;;4992868;28;823;-73
2023/04/28 05:33:24;;;;;;;;;;;18.40;66.00;;;;;;4991852;28;1229;-73
2023/04/28 05:35:50;;;;;;;;;;;18.40;66.00;;;;;;4991529;28;983;-73
2023/04/28 05:38:16;;;;;;;;;;;18.40;66.10;;;;;;4990964;28;911;-73
2023/04/28 05:40:41;;;;;;;;;;;18.40;66.10;;;;;;4990985;28;883;-73
2023/04/28 05:43:07;;;;;;;;;;;18.40;66.10;;;;;;4993697;28;1002;-74
2023/04/28 05:45:32;;;;;;;;;;;18.40;66.10;;;;;;4993339;28;1294;-73
2023/04/28 05:47:58;;;;;;;;;;;18.40;66.20;;;;;;4990867;28;1970;-73
2023/04/28 05:50:23;;;;;;;;;;;18.40;66.10;;;;;;4993442;28;1380;-73
2023/04/28 05:52:49;;;;;;;;;;;18.40;66.20;;;;;;4993967;28;1803;-74
2023/04/28 05:55:14;;;;;;;;;;;18.40;66.20;;;;;;4992852;28;1877;-78
2023/04/28 05:57:40;;;;;;;;;;;18.40;66.20;;;;;;4994452;28;1584;-75
2023/04/28 06:00:06;;;;;;;;;;;18.40;66.30;;;;;;4994287;28;950;-73
2023/04/28 06:02:32;;;;;;;;;;;18.40;66.30;;;;;;4993659;28;801;-73
2023/04/28 06:04:57;;;;;;;;;;;18.30;66.20;;;;;;4989622;28;1367;-71
2023/04/28 06:07:22;;;;;;;;;;;18.30;66.30;;;;;;4994545;28;939;-74
2023/04/28 06:09:48;;;;;;;;;;;18.30;66.30;;;;;;4997155;28;1977;-73
2023/04/28 06:12:14;;;;;;;;;;;18.30;66.30;;;;;;4994487;28;1357;-73
2023/04/28 06:14:39;;;;;;;;;;;18.30;66.70;;;;;;4998305;28;1323;-73
2023/04/28 06:17:05;;;;;;;;;;;18.30;66.40;;;;;;4998917;28;868;-72
2023/04/28 06:19:30;;;;;;;;;;;18.30;66.40;;;;;;4994711;28;876;-72
2023/04/28 06:21:56;;;;;;;;;;;18.30;66.40;;;;;;4989376;28;939;-71
2023/04/28 06:24:21;;;;;;;;;;;18.30;66.40;;;;;;4994461;28;1256;-70
2023/04/28 06:26:46;;;;;;;;;;;18.30;66.50;;;;;;4999226;28;891;-70
2023/04/28 06:29:12;;;;;;;;;;;18.30;66.50;;;;;;4997762;28;1953;-70
2023/04/28 06:31:38;;;;;;;;;;;18.30;66.50;;;;;;4996134;28;827;-71
2023/04/28 06:34:03;;;;;;;;;;;18.30;66.50;;;;;;5002229;28;1326;-71
2023/04/28 06:36:28;;;;;;;;;;;18.30;66.60;;;;;;4998086;28;1300;-70
2023/04/28 06:38:54;;;;;;;;;;;18.30;66.60;;;;;;4999585;28;884;-71
2023/04/28 06:41:20;;;;;;;;;;;18.30;66.70;;;;;;4997402;28;1338;-71
2023/04/28 06:43:45;;;;;;;;;;;18.30;66.70;;;;;;4994176;28;1322;-70
2023/04/28 06:46:11;;;;;;;;;;;18.30;66.70;;;;;;4997783;28;834;-70
2023/04/28 06:48:36;;;;;;;;;;;18.20;66.60;;;;;;4997701;28;1965;-75
2023/04/28 06:51:02;;;;;;;;;;;18.20;66.70;;;;;;4994768;28;832;-74
2023/04/28 06:53:28;;;;;;;;;;;18.20;66.70;;;;;;4991504;28;1979;-70
2023/04/28 06:55:53;;;;;;;;;;;18.20;66.70;;;;;;4994109;28;1306;-74
2023/04/28 06:58:19;;;;;;;;;;;18.20;66.70;;;;;;4999357;28;1155;-73
2023/04/28 07:00:45;;;;;;;;;;;18.20;66.80;;;;;;5000348;28;827;-73
2023/04/28 07:03:10;;;;;;;;;;;18.20;66.80;;;;;;4982231;28;1921;-74
2023/04/28 07:05:36;;;;;;;;;;;18.20;66.80;;;;;;4996804;28;1336;-73
2023/04/28 07:08:02;;;;;;;;;;;18.20;66.80;;;;;;5000281;28;2013;-73
2023/04/28 07:10:27;;;;;;;;;;;18.20;66.90;;;;;;4996558;28;1038;-74
2023/04/28 07:12:53;;;;;;;;;;;18.10;66.90;;;;;;5007266;28;1228;-74
2023/04/28 07:15:18;;;;;;;;;;;18.20;66.90;;;;;;4993576;28;1342;-73
2023/04/28 07:17:44;;;;;;;;;;;18.10;66.90;;;;;;4990310;28;1065;-73
2023/04/28 07:20:09;;;;;;;;;;;18.20;66.90;;;;;;4993799;28;806;-73
2023/04/28 07:22:35;;;;;;;;;;;18.20;67.00;;;;;;4999882;28;808;-74
2023/04/28 07:25:00;;;;;;;;;;;18.20;67.00;;;;;;4987153;28;1360;-73
2023/04/28 07:27:26;;;;;;;;;;;18.20;67.10;;;;;;4993869;28;782;-71
2023/04/28 07:29:51;;;;;;;;;;;18.10;67.00;;;;;;4998861;28;1973;-76
2023/04/28 07:32:17;;;;;;;;;;;18.10;67.00;;;;;;4994678;28;1459;-72
2023/04/28 07:34:42;;;;;;;;;;;18.10;67.00;;;;;;4991819;28;1391;-75
2023/04/28 07:37:08;;;;;;;;;;;18.10;67.00;;;;;;4982327;28;2000;-73
2023/04/28 07:39:34;;;;;;;;;;;18.10;67.10;;;;;;4996128;28;1351;-73
2023/04/28 07:42:00;;;;;;;;;;;18.10;67.10;;;;;;4996324;28;1260;-72
2023/04/28 07:44:25;;;;;;;;;;;18.10;67.10;;;;;;4996220;28;1458;-77
2023/04/28 07:46:50;;;;;;;;;;;18.10;67.20;;;;;;4997125;28;1243;-76
2023/04/28 07:49:16;;;;;;;;;;;18.10;67.10;;;;;;4979745;28;1985;-77
2023/04/28 07:51:41;;;;;;;;;;;18.10;67.20;;;;;;4995483;28;1437;-76
2023/04/28 07:54:07;;;;;;;;;;;18.10;67.20;;;;;;4991059;28;1869;-74
2023/04/28 07:56:33;;;;;;;;;;;18.10;67.20;;;;;;4996319;28;1521;-74
2023/04/28 07:58:58;;;;;;;;;;;18.10;67.20;;;;;;4994826;28;1327;-74
2023/04/28 08:01:24;;;;;;;;;;;18.10;67.30;;;;;;4997260;28;793;-74
2023/04/28 08:03:49;;;;;;;;;;;18.00;67.20;;;;;;4995529;28;1336;-74
2023/04/28 08:06:15;;;;;;;;;;;18.10;67.30;;;;;;4989399;28;2323;-74
2023/04/28 08:08:40;;;;;;;;;;;18.10;67.30;;;;;;4993340;28;1971;-73
2023/04/28 08:11:07;;;;;;;;;;;18.00;67.30;;;;;;4993856;28;2065;-74
2023/04/28 08:13:32;;;;;;;;;;;18.00;67.30;;;;;;4994629;28;1367;-74
2023/04/28 08:15:59;;;;;;;;;;;18.00;67.30;;;;;;4995871;28;1456;-74
2023/04/28 08:18:25;;;;;;;;;;;18.00;67.30;;;;;;4991866;28;1426;-72
2023/04/28 08:20:51;;;;;;;;;;;18.00;67.30;;;;;;4998020;28;1340;-72
2023/04/28 08:23:16;;;;;;;;;;;18.00;67.30;;;;;;4991363;28;1360;-72
2023/04/28 08:25:42;;;;;;;;;;;18.00;67.40;;;;;;4992056;28;887;-72
2023/04/28 08:28:07;;;;;;;;;;;18.00;67.30;;;;;;4995081;28;1910;-72
2023/04/28 08:30:33;;;;;;;;;;;18.00;67.30;;;;;;4995477;28;830;-73
2023/04/28 08:32:58;;;;;;;;;;;18.00;67.40;;;;;;4996935;28;843;-72
2023/04/28 08:35:24;;;;;;;;;;;18.00;67.40;;;;;;4981746;28;1400;-72
2023/04/28 08:37:50;;;;;;;;;;;18.00;67.40;;;;;;4997528;28;1633;-72
2023/04/28 08:40:16;;;;;;;;;;;18.00;67.40;;;;;;4993300;28;837;-72
2023/04/28 08:42:43;;;;;;;;;;;18.00;67.40;;;;;;4991568;28;1276;-74
2023/04/28 08:45:09;;;;;;;;;;;18.00;67.40;;;;;;4992248;28;1235;-74
2023/04/28 08:47:35;;;;;;;;;;;18.00;67.40;;;;;;4992162;28;894;-74
2023/04/28 08:50:04;;;;;;;;;;;18.00;67.40;;;;;;4994516;28;1910;-74
2023/04/28 08:52:30;;;;;;;;;;;18.00;67.40;;;;;;4992985;28;883;-74
2023/04/28 08:54:57;;;;;;;;;;;18.00;67.40;;;;;;4993494;28;1230;-74
2023/04/28 08:57:22;;;;;;;;;;;18.00;67.40;;;;;;4976154;28;1242;-73
2023/04/28 08:59:48;;;;;;;;;;;18.00;67.40;;;;;;4995870;28;835;-74
2023/04/28 09:02:13;;;;;;;;;;;18.00;67.40;;;;;;4996098;28;872;-73
2023/04/28 09:04:39;;;;;;;;;;;18.00;67.40;;;;;;4990555;28;1359;-74
2023/04/28 09:07:09;;;;;;;;;;;18.00;67.40;;;;;;4995642;28;982;-74
2023/04/28 09:09:35;;;;;;;;;;;18.00;67.40;;;;;;4995424;28;1902;-74
2023/04/28 09:12:01;;;;;;;;;;;18.00;67.50;;;;;;4990500;28;824;-74
2023/04/28 09:14:26;;;;;;;;;;;18.00;68.30;;;;;;4994582;28;1265;-74
2023/04/28 09:16:52;;;;;;;;;;;18.00;67.50;;;;;;4998507;28;946;-74
2023/04/28 09:19:18;;;;;;;;;;;18.00;67.50;;;;;;4991351;28;809;-74
2023/04/28 09:21:52;;;;;;;;;;;18.00;67.60;;;;;;4990045;28;884;-74
2023/04/28 09:24:30;;;;;;;;;;;18.00;67.50;;;;;;4994907;28;1325;-74
2023/04/28 09:26:56;;;;;;;;;;;17.90;67.50;;;;;;4995434;28;1240;-73
2023/04/28 09:29:22;;;;;;;;;;;17.90;67.50;;;;;;4987557;28;1898;-74
2023/04/28 09:31:48;;;;;;;;;;;17.90;67.60;;;;;;4984669;28;1519;-74
2023/04/28 09:34:14;;;;;;;;;;;17.90;68.40;;;;;;4974589;28;1418;-74
2023/04/28 09:36:39;;;;;;;;;;;17.90;67.70;;;;;;4994111;28;832;-74
2023/04/28 09:39:05;;;;;;;;;;;17.90;67.70;;;;;;4993213;28;859;-74
2023/04/28 09:41:39;;;;;;;;;;;17.90;68.40;;;;;;4992266;28;1236;-74
2023/04/28 09:44:18;;;;;;;;;;;17.90;67.70;;;;;;4988531;28;1334;-74
2023/04/28 09:46:44;;;;;;;;;;;17.90;67.70;;;;;;4993411;28;967;-74
2023/04/28 09:49:09;;;;;;;;;;;17.90;67.70;;;;;;4996822;28;1898;-74
2023/04/28 09:51:35;;;;;;;;;;;17.90;67.70;;;;;;5000117;28;1914;-74
2023/04/28 09:54:03;;;;;;;;;;;17.90;67.70;;;;;;4995474;28;1924;-74
2023/04/28 09:56:29;;;;;;;;;;;17.90;67.80;;;;;;4998772;28;1351;-73
2023/04/28 09:58:58;;;;;;;;;;;17.90;67.70;;;;;;4998681;28;1378;-74
2023/04/28 10:01:31;;;;;;;;;;;17.90;67.70;;;;;;5000867;28;870;-74
2023/04/28 10:03:57;;;;;;;;;;;17.90;67.80;;;;;;4999033;28;1308;-75
2023/04/28 10:06:22;;;;;;;;;;;17.90;67.80;;;;;;4997031;28;899;-75
2023/04/28 10:08:48;;;;;;;;;;;17.90;67.80;;;;;;4995267;28;1952;-75
2023/04/28 10:11:15;;;;;;;;;;;17.90;67.80;;;;;;4998369;28;832;-75
2023/04/28 10:13:41;;;;;;;;;;;17.90;67.80;;;;;;4996613;28;1270;-75
2023/04/28 10:16:07;;;;;;;;;;;17.90;67.80;;;;;;4999311;28;947;-74
2023/04/28 10:18:34;;;;;;;;;;;17.90;67.80;;;;;;4999479;28;851;-74
2023/04/28 10:20:59;;;;;;;;;;;17.90;67.80;;;;;;4994298;28;773;-73
2023/04/28 10:23:45;;;;;;;;;;;17.90;68.60;;;;;;4993347;28;1252;-71
2023/04/28 10:26:11;;;;;;;;;;;17.90;67.80;;;;;;4991716;28;1072;-72
2023/04/28 10:28:43;;;;;;;;;;;17.90;66.50;;;;;;4989789;28;2335;-72
2023/04/28 10:31:11;;;;;;;;;;;17.90;63.50;;;;;;4992598;28;1286;-71
2023/04/28 10:33:37;;;;;;;;;;;17.90;62.60;;;;;;4993214;28;2150;-72
2023/04/28 10:36:03;;;;;;;;;;;17.90;61.40;;;;;;4997446;28;1919;-71
2023/04/28 10:38:28;;;;;;;;;;;17.90;60.90;;;;;;4996341;28;1955;-71
2023/04/28 10:40:54;;;;;;;;;;;17.80;60.30;;;;;;4996576;28;1207;-72
2023/04/28 10:43:32;;;;;;;;;;;17.80;59.40;;;;;;4993880;28;1387;-72
2023/04/28 10:46:00;;;;;;;;;;;17.80;58.20;;;;;;4995436;28;848;-72
2023/04/28 10:48:25;;;;;;;;;;;17.80;58.00;;;;;;4990942;28;1965;-72
2023/04/28 10:51:03;;;;;;;;;;;17.80;58.00;;;;;;4996446;28;907;-71
2023/04/28 10:53:44;;;;;;;;;;;17.80;58.10;;;;;;4996172;28;1304;-71
2023/04/28 10:56:09;;;;;;;;;;;17.80;58.00;;;;;;4998071;28;800;-70
2023/04/28 10:58:38;;;;;;;;;;;17.80;57.00;;;;;;4993291;28;940;-70
2023/04/28 11:01:25;;;;;;;;;;;17.80;57.40;;;;;;4995784;28;856;-71
2023/04/28 11:04:02;;;;;;;;;;;17.80;57.10;;;;;;4980911;28;1673;-71
2023/04/28 11:06:34;;;;;;;;;;;17.80;57.00;;;;;;4997346;28;859;-71
2023/04/28 11:09:23;;;;;;;;;;;17.80;56.90;;;;;;4992580;28;1965;-71
2023/04/28 11:12:05;;;;;;;;;;;17.80;56.70;;;;;;4971065;28;1602;-72
2023/04/28 11:14:30;;;;;;;;;;;17.80;56.60;;;;;;4992856;28;1237;-71
2023/04/28 11:17:00;;;;;;;;;;;17.80;56.50;;;;;;4991909;28;1504;-71
2023/04/28 11:19:27;;;;;;;;;;;17.80;56.40;;;;;;4995298;28;855;-71
2023/04/28 11:21:56;;;;;;;;;;;17.80;56.30;;;;;;4994196;28;915;-72
2023/04/28 11:24:26;;;;;;;;;;;17.80;55.60;;;;;;4996743;28;1270;-72
2023/04/28 11:26:52;;;;;;;;;;;17.80;55.80;;;;;;4996998;28;853;-71
2023/04/28 11:29:17;;;;;;;;;;;17.80;55.50;;;;;;4996892;28;1890;-71
2023/04/28 11:31:52;;;;;;;;;;;17.80;55.50;;;;;;4998022;28;958;-72
2023/04/28 11:34:18;;;;;;;;;;;17.80;56.00;;;;;;4997319;28;2041;-72
2023/04/28 11:36:43;;;;;;;;;;;17.80;55.90;;;;;;4991220;28;1334;-71
2023/04/28 11:39:09;;;;;;;;;;;17.80;55.60;;;;;;4996290;28;1220;-72
2023/04/28 11:41:35;;;;;;;;;;;17.70;55.20;;;;;;4993314;28;1436;-72
2023/04/28 11:44:08;;;;;;;;;;;17.70;54.90;;;;;;4991470;28;1281;-71
2023/04/28 11:46:34;;;;;;;;;;;17.70;54.70;;;;;;4993137;28;1099;-72
2023/04/28 11:49:03;;;;;;;;;;;17.70;54.20;;;;;;4993806;28;1906;-72
2023/04/28 11:51:37;;;;;;;;;;;17.70;54.10;;;;;;4992892;28;908;-72
2023/04/28 11:54:02;;;;;;;;;;;17.70;54.10;;;;;;4997676;28;1350;-72
2023/04/28 11:56:28;;;;;;;;;;;17.70;53.70;;;;;;4997687;28;879;-72
2023/04/28 11:59:07;;;;;;;;;;;17.70;53.20;;;;;;4980096;28;976;-72
2023/04/28 12:01:36;;;;;;;;;;;17.70;53.10;;;;;;4998450;28;855;-72
2023/04/28 12:04:02;;;;;;;;;;;17.70;53.20;;;;;;5000397;28;1256;-72
2023/04/28 12:06:27;;;;;;;;;;;17.70;54.20;;;;;;4996906;28;891;-71
2023/04/28 12:08:53;;;;;;;;;;;17.70;54.00;;;;;;4993055;28;1910;-71
2023/04/28 12:11:20;;;;;;;;;;;17.70;53.70;;;;;;4996720;28;859;-72
2023/04/28 12:14:01;;;;;;;;;;;17.70;53.70;;;;;;4994677;28;1216;-70
2023/04/28 12:16:37;;;;;;;;;;;17.70;54.40;;;;;;4997169;28;927;-72
2023/04/28 12:19:06;;;;;;;;;;;17.70;54.50;;;;;;4992917;28;824;-73
2023/04/28 12:21:32;;;;;;;;;;;17.70;54.00;;;;;;4990220;28;844;-71
2023/04/28 12:23:57;;;;;;;;;;;17.70;54.40;;;;;;4994842;28;2249;-70
2023/04/28 12:26:24;;;;;;;;;;;17.70;54.00;;;;;;4992138;28;1110;-72
2023/04/28 12:28:49;;;;;;;;;;;17.70;53.80;;;;;;4991930;28;1980;-73
2023/04/28 12:31:15;;;;;;;;;;;17.70;54.10;;;;;;4991690;28;825;-72
2023/04/28 12:33:40;;;;;;;;;;;17.70;53.80;;;;;;4996868;28;1363;-73
2023/04/28 12:36:06;;;;;;;;;;;17.70;53.70;;;;;;4996302;28;1350;-72
2023/04/28 12:38:31;;;;;;;;;;;17.70;53.40;;;;;;4992999;28;892;-73
2023/04/28 12:40:57;;;;;;;;;;;17.70;53.30;;;;;;4994594;28;920;-72
2023/04/28 12:43:23;;;;;;;;;;;17.70;53.00;;;;;;4982180;28;1764;-72
2023/04/28 12:45:52;;;;;;;;;;;17.70;53.30;;;;;;4994676;28;1039;-71
2023/04/28 12:48:18;;;;;;;;;;;17.70;53.80;;;;;;4994270;28;2405;-72
2023/04/28 12:50:43;;;;;;;;;;;17.70;53.50;;;;;;4991830;28;875;-72
2023/04/28 12:53:09;;;;;;;;;;;17.70;53.40;;;;;;4990646;28;809;-72
2023/04/28 12:55:35;;;;;;;;;;;17.70;53.50;;;;;;4994597;28;852;-72
2023/04/28 12:58:01;;;;;;;;;;;17.70;53.60;;;;;;4997102;28;877;-72
2023/04/28 13:00:26;;;;;;;;;;;17.70;53.30;;;;;;4991114;28;1010;-71
2023/04/28 13:02:52;;;;;;;;;;;17.70;53.80;;;;;;4997335;28;1337;-72
2023/04/28 13:05:18;;;;;;;;;;;17.70;53.50;;;;;;4994663;28;1254;-72
2023/04/28 13:07:44;;;;;;;;;;;17.70;52.60;;;;;;4993230;28;828;-72
2023/04/28 13:10:09;;;;;;;;;;;17.70;52.90;;;;;;4991883;28;1990;-72
2023/04/28 13:12:35;;;;;;;;;;;17.70;53.10;;;;;;4993026;28;884;-71
2023/04/28 13:15:00;;;;;;;;;;;17.70;53.20;;;;;;4995378;28;1239;-72
2023/04/28 13:17:27;;;;;;;;;;;17.70;53.10;;;;;;4994477;28;805;-72
2023/04/28 13:19:52;;;;;;;;;;;17.70;53.60;;;;;;4994242;28;852;-73
2023/04/28 13:22:18;;;;;;;;;;;17.70;53.30;;;;;;4994576;28;1524;-72
2023/04/28 13:24:44;;;;;;;;;;;17.70;53.40;;;;;;4990946;28;1794;-72
2023/04/28 13:27:09;;;;;;;;;;;17.70;53.20;;;;;;4991096;28;850;-72
2023/04/28 13:29:35;;;;;;;;;;;17.70;53.50;;;;;;4994250;28;1890;-72
2023/04/28 13:32:01;;;;;;;;;;;17.70;53.70;;;;;;4998482;28;895;-71
2023/04/28 13:34:26;;;;;;;;;;;17.70;53.60;;;;;;4992944;28;1304;-72
2023/04/28 13:36:53;;;;;;;;;;;17.70;53.60;;;;;;4993215;28;865;-73
2023/04/28 13:39:20;;;;;;;;;;;17.70;53.60;;;;;;4993177;28;890;-70
2023/04/28 13:41:46;;;;;;;;;;;17.70;53.60;;;;;;4989464;28;1466;-70
2023/04/28 13:44:11;;;;;;;;;;;17.70;53.70;;;;;;4991124;28;1458;-70
2023/04/28 13:46:37;;;;;;;;;;;17.60;53.70;;;;;;4988817;28;1058;-70
2023/04/28 13:49:03;;;;;;;;;;;17.60;53.60;;;;;;4993296;28;1910;-70
2023/04/28 13:51:31;;;;;;;;;;;17.60;53.90;;;;;;4995748;28;979;-70
2023/04/28 13:53:56;;;;;;;;;;;17.60;54.00;;;;;;4991481;28;1272;-71
2023/04/28 13:56:22;;;;;;;;;;;17.60;53.90;;;;;;4992199;28;973;-72
2023/04/28 13:58:47;;;;;;;;;;;17.60;54.10;;;;;;4984551;28;891;-71
2023/04/28 14:01:13;;;;;;;;;;;17.60;54.00;;;;;;4995997;28;873;-72
2023/04/28 14:03:39;;;;;;;;;;;17.60;54.50;;;;;;4991603;28;1265;-73
2023/04/28 14:06:05;;;;;;;;;;;17.60;54.40;;;;;;4996635;28;899;-71
2023/04/28 14:08:31;;;;;;;;;;;17.60;54.40;;;;;;4993121;28;1906;-73
2023/04/28 14:10:56;;;;;;;;;;;17.60;54.30;;;;;;4992608;28;1010;-71
2023/04/28 14:13:23;;;;;;;;;;;17.70;55.30;;;;;;4988752;28;1345;-70
2023/04/28 14:15:50;;;;;;;;;;;17.60;54.40;;;;;;4986627;28;819;-69
2023/04/28 14:18:15;;;;;;;;;;;17.60;54.50;;;;;;4996917;28;792;-72
2023/04/28 14:20:41;;;;;;;;;;;17.60;55.00;;;;;;4994162;28;931;-69
2023/04/28 14:23:06;;;;;;;;;;;17.60;55.30;;;;;;4989397;28;784;-71
2023/04/28 14:25:31;;;;;;;;;;;17.60;55.60;;;;;;4989058;28;1383;-71
2023/04/28 14:27:57;;;;;;;;;;;17.60;55.70;;;;;;4994432;28;851;-71
2023/04/28 14:30:24;;;;;;;;;;;17.70;56.00;;;;;;4987167;28;1898;-71